Hamaritha — PF2437 — position and weather

sailwx.info

Track history (hours):
 
Tides and Currents Weather Stations Pressure Air Temp Water Temp Dewpoint Dewpoint Depression Visibility Wind Speed Wind Dir Waves Ship Positions

Hamaritha

Last reported at 2017-Nov-18 21:30 UTC. Time now 2017-Nov-18 21:58 UTC.
Position N 51°15' E 004°14'.

Length 86 m.

Type: Ship. MMSI: 244700691.

Date/timePositionNaut miles runAvg speedWind from/ knotsBaromVisibWave heightAir tempDewpointWater temp
2017-Nov-18 21:30N 51°15' E 004°14'0 0.0
2017-Nov-18 21:00N 51°15' E 004°14'0 0.0
2017-Nov-18 20:30N 51°15' E 004°14'0 0.0
2017-Nov-18 20:00N 51°15' E 004°14'0 0.0
2017-Nov-18 19:30N 51°15' E 004°14'0 0.0
2017-Nov-18 19:00N 51°15' E 004°14'0 0.0
2017-Nov-18 18:30N 51°15' E 004°14'0 0.0
2017-Nov-18 18:00N 51°15' E 004°14'0 0.0
2017-Nov-18 17:30N 51°15' E 004°14'0 0.0
2017-Nov-18 17:00N 51°15' E 004°14'0 0.0
2017-Nov-18 16:30N 51°15' E 004°14'0 0.0
2017-Nov-18 16:00N 51°15' E 004°14'0 0.0
2017-Nov-18 15:31N 51°15' E 004°14'0 0.0
2017-Nov-18 15:01N 51°15' E 004°14'0 0.0
2017-Nov-18 14:30N 51°15' E 004°14'0 0.0
2017-Nov-18 14:00N 51°15' E 004°14'0 0.0
2017-Nov-18 13:31N 51°15' E 004°14'0 0.0
2017-Nov-18 13:00N 51°15' E 004°14'0 0.0
2017-Nov-18 12:31N 51°15' E 004°14'0 0.0
2017-Nov-18 12:01N 51°15' E 004°14'0 0.0
2017-Nov-18 11:31N 51°15' E 004°14'0 0.0
2017-Nov-18 11:00N 51°15' E 004°14'0 0.0
2017-Nov-18 10:30N 51°15' E 004°14'1 2.1
2017-Nov-18 10:00N 51°16' E 004°15'1 1.3
2017-Nov-18 09:31N 51°17' E 004°15'1 1.8
2017-Nov-18 09:01N 51°18' E 004°16'3 5.7
2017-Nov-18 08:30N 51°17' E 004°20'0 0.0
2017-Nov-18 08:00N 51°17' E 004°20'4 7.5
2017-Nov-18 07:30N 51°20' E 004°18'4 7.2
2017-Nov-18 07:00N 51°23' E 004°15'3 6.7
2017-Nov-18 06:30N 51°26' E 004°14'0 0.0
2017-Nov-18 05:59N 51°26' E 004°14'0 0.0
2017-Nov-18 05:30N 51°26' E 004°14'0 0.0
2017-Nov-18 05:00N 51°26' E 004°14'0 0.0
2017-Nov-18 04:30N 51°26' E 004°14'0 0.0
2017-Nov-18 03:55N 51°26' E 004°14'0 0.0
2017-Nov-18 03:28N 51°26' E 004°14'0 0.0
2017-Nov-18 03:00N 51°26' E 004°14'0 0.0
2017-Nov-18 02:30N 51°26' E 004°14'0 0.0
2017-Nov-18 01:58N 51°26' E 004°14'0 0.0
2017-Nov-18 01:30N 51°26' E 004°14'0 0.0
2017-Nov-18 01:00N 51°26' E 004°14'0 0.0
2017-Nov-18 00:30N 51°26' E 004°14'0 0.0
2017-Nov-18 00:00N 51°26' E 004°14'0 0.0
2017-Nov-17 23:30N 51°26' E 004°14'0 0.0
2017-Nov-17 22:57N 51°26' E 004°14'0 0.0
2017-Nov-17 22:27N 51°26' E 004°14'0 0.0
2017-Nov-17 22:00N 51°26' E 004°14'0 0.0
2017-Nov-17 21:27N 51°26' E 004°14'0 0.0
2017-Nov-17 21:00N 51°26' E 004°14'1 1.2
2017-Nov-17 20:30N 51°27' E 004°14'4 6.9
2017-Nov-17 19:59N 51°30' E 004°13'4 8.3
2017-Nov-17 19:29N 51°35' E 004°12'4 7.4
2017-Nov-17 18:58N 51°38' E 004°15'5 9.1
2017-Nov-17 18:25N 51°40' E 004°22'2 3.8
2017-Nov-17 17:54N 51°42' E 004°24'0 0.3
2017-Nov-17 17:30N 51°42' E 004°24'0 0.0
2017-Nov-17 17:00N 51°42' E 004°24'0 0.0
2017-Nov-17 16:30N 51°42' E 004°24'3 6.3
2017-Nov-17 16:00N 51°42' E 004°29'510.9
2017-Nov-17 15:30N 51°43' E 004°38'4 7.5
2017-Nov-17 15:00N 51°44' E 004°44'4 8.5
2017-Nov-17 14:30N 51°43' E 004°51'5 9.3
2017-Nov-17 14:00N 51°43' E 004°58'5 8.8
2017-Nov-17 13:28N 51°44' E 005°06'2 4.0
2017-Nov-17 12:55N 51°44' E 005°09'4 8.6
2017-Nov-17 12:30N 51°44' E 005°15'3 5.2
2017-Nov-17 11:52N 51°44' E 005°20'3 4.6
2017-Nov-17 11:19N 51°42' E 005°22'1 2.2
2017-Nov-17 11:00N 51°41' E 005°22'4 6.5
2017-Nov-17 10:26N 51°39' E 005°26'1 1.2
2017-Nov-17 10:00N 51°39' E 005°27'3 5.5
2017-Nov-17 09:30N 51°37' E 005°31'0 0.0
2017-Nov-17 09:00N 51°37' E 005°31'0 0.0
2017-Nov-17 08:30N 51°37' E 005°31'0 0.7
2017-Nov-17 08:00N 51°37' E 005°30'0 0.0
2017-Nov-17 07:28N 51°37' E 005°30'0 0.0
2017-Nov-17 07:00N 51°37' E 005°30'0 0.0
2017-Nov-17 06:30N 51°37' E 005°30'0 0.0
2017-Nov-17 06:00N 51°37' E 005°30'0 0.0
2017-Nov-17 05:30N 51°37' E 005°30'0 0.0
2017-Nov-17 05:00N 51°37' E 005°30'0 0.0
2017-Nov-17 04:30N 51°37' E 005°30'0 0.0
2017-Nov-17 04:00N 51°37' E 005°30'0 0.0
2017-Nov-17 03:30N 51°37' E 005°30'0 0.0
2017-Nov-17 03:00N 51°37' E 005°30'0 0.0
2017-Nov-17 02:30N 51°37' E 005°30'0 0.0
2017-Nov-17 02:00N 51°37' E 005°30'0 0.0
2017-Nov-17 01:30N 51°37' E 005°30'0 0.0
2017-Nov-17 01:00N 51°37' E 005°30'0 0.0
2017-Nov-17 00:30N 51°37' E 005°30'0 0.0
2017-Nov-17 00:00N 51°37' E 005°30'0 0.0
2017-Nov-16 23:30N 51°37' E 005°30'0 0.0
2017-Nov-16 23:00N 51°37' E 005°30'0 0.0
2017-Nov-16 19:23N 51°37' E 005°30'1 3.2
2017-Nov-16 19:00N 51°38' E 005°29'1 2.9
2017-Nov-16 18:30N 51°39' E 005°27'0 0.0
2017-Nov-16 18:00N 51°39' E 005°27'0 0.0
2017-Nov-16 17:31N 51°39' E 005°27'0 0.0
2017-Nov-16 17:00N 51°39' E 005°27'0 0.0
2017-Nov-16 16:30N 51°39' E 005°27'0 0.0
2017-Nov-16 16:00N 51°39' E 005°27'0 0.0
2017-Nov-16 15:30N 51°39' E 005°27'0 0.0
2017-Nov-16 15:00N 51°39' E 005°27'0 0.0
2017-Nov-16 14:30N 51°39' E 005°27'0 0.4
2017-Nov-16 14:00N 51°39' E 005°27'1 2.7
2017-Nov-16 13:30N 51°39' E 005°25'2 4.4
2017-Nov-16 13:00N 51°41' E 005°22'1 2.0
2017-Nov-16 12:30N 51°42' E 005°22'2 3.7
2017-Nov-16 12:00N 51°44' E 005°20'1 1.7
2017-Nov-16 11:30N 51°44' E 005°20'2 5.0
2017-Nov-16 11:00N 51°47' E 005°22'1 2.5
2017-Nov-16 10:28N 51°48' E 005°21'2 5.3
2017-Nov-16 10:00N 51°50' E 005°24'5 8.7
2017-Nov-16 09:27N 51°53' E 005°29'4 9.5
2017-Nov-16 09:00N 51°54' E 005°36'5 9.6
2017-Nov-16 08:29N 51°53' E 005°44'6 8.4
2017-Nov-16 07:46N 51°52' E 005°53'2 8.2
2017-Nov-16 07:30N 51°52' E 005°57'4 7.2
2017-Nov-16 07:00N 51°52' E 006°03'510.1
2017-Nov-16 06:30N 51°50' E 006°10'15 8.8
2017-Nov-16 04:49N 51°41' E 006°28'3 9.8
2017-Nov-16 04:30N 51°40' E 006°33'4 7.8
2017-Nov-16 04:01N 51°36' E 006°36'4 7.5
2017-Nov-16 03:30N 51°34' E 006°41'3 6.2
2017-Nov-16 03:00N 51°31' E 006°42'0 0.0
2017-Nov-16 02:30N 51°31' E 006°42'0 0.0
2017-Nov-16 02:00N 51°31' E 006°42'0 0.0
2017-Nov-16 01:31N 51°31' E 006°42'0 0.0
2017-Nov-16 01:00N 51°31' E 006°42'0 0.0
2017-Nov-16 00:30N 51°31' E 006°42'0 0.0
2017-Nov-16 00:00N 51°31' E 006°42'0 0.0
2017-Nov-15 23:30N 51°31' E 006°42'0 0.0
2017-Nov-15 23:00N 51°31' E 006°42'0 0.0
2017-Nov-15 22:30N 51°31' E 006°42'0 0.0
2017-Nov-15 22:00N 51°31' E 006°42'0 0.0
2017-Nov-15 21:30N 51°31' E 006°42'2 4.9
2017-Nov-15 21:00N 51°29' E 006°41'4 8.6
2017-Nov-15 20:30N 51°25' E 006°44'5 8.5
2017-Nov-15 19:55N 51°21' E 006°39'25 7.4
2017-Nov-15 16:29N 50°59' E 006°59'5 9.3
2017-Nov-15 16:00N 50°54' E 006°59'3 6.0
2017-Nov-15 15:26N 50°51' E 007°00'4 7.6
2017-Nov-15 14:58N 50°48' E 007°02'510.4
2017-Nov-15 14:30N 50°44' E 007°07'  
Track history (hours):
 
Tides and Currents Weather Stations Pressure Air Temp Water Temp Dewpoint Dewpoint Depression Visibility Wind Speed Wind Dir Waves Ship Positions

Hamaritha

Last reported at 2017-Nov-18 21:30 UTC. Time now 2017-Nov-18 21:58 UTC.
Position N 51°15' E 004°14'.

Length 86 m.

Type: Ship. MMSI: 244700691.

Date/timePositionNaut miles runAvg speedWind from/ knotsBaromVisibWave heightAir tempDewpointWater temp
2017-Nov-18 21:30N 51°15' E 004°14'0 0.0
2017-Nov-18 21:00N 51°15' E 004°14'0 0.0
2017-Nov-18 20:30N 51°15' E 004°14'0 0.0
2017-Nov-18 20:00N 51°15' E 004°14'0 0.0
2017-Nov-18 19:30N 51°15' E 004°14'0 0.0
2017-Nov-18 19:00N 51°15' E 004°14'0 0.0
2017-Nov-18 18:30N 51°15' E 004°14'0 0.0
2017-Nov-18 18:00N 51°15' E 004°14'0 0.0
2017-Nov-18 17:30N 51°15' E 004°14'0 0.0
2017-Nov-18 17:00N 51°15' E 004°14'0 0.0
2017-Nov-18 16:30N 51°15' E 004°14'0 0.0
2017-Nov-18 16:00N 51°15' E 004°14'0 0.0
2017-Nov-18 15:31N 51°15' E 004°14'0 0.0
2017-Nov-18 15:01N 51°15' E 004°14'0 0.0
2017-Nov-18 14:30N 51°15' E 004°14'0 0.0
2017-Nov-18 14:00N 51°15' E 004°14'0 0.0
2017-Nov-18 13:31N 51°15' E 004°14'0 0.0
2017-Nov-18 13:00N 51°15' E 004°14'0 0.0
2017-Nov-18 12:31N 51°15' E 004°14'0 0.0
2017-Nov-18 12:01N 51°15' E 004°14'0 0.0
2017-Nov-18 11:31N 51°15' E 004°14'0 0.0
2017-Nov-18 11:00N 51°15' E 004°14'0 0.0
2017-Nov-18 10:30N 51°15' E 004°14'1 2.1
2017-Nov-18 10:00N 51°16' E 004°15'1 1.3
2017-Nov-18 09:31N 51°17' E 004°15'1 1.8
2017-Nov-18 09:01N 51°18' E 004°16'3 5.7
2017-Nov-18 08:30N 51°17' E 004°20'0 0.0
2017-Nov-18 08:00N 51°17' E 004°20'4 7.5
2017-Nov-18 07:30N 51°20' E 004°18'4 7.2
2017-Nov-18 07:00N 51°23' E 004°15'3 6.7
2017-Nov-18 06:30N 51°26' E 004°14'0 0.0
2017-Nov-18 05:59N 51°26' E 004°14'0 0.0
2017-Nov-18 05:30N 51°26' E 004°14'0 0.0
2017-Nov-18 05:00N 51°26' E 004°14'0 0.0
2017-Nov-18 04:30N 51°26' E 004°14'0 0.0
2017-Nov-18 03:55N 51°26' E 004°14'0 0.0
2017-Nov-18 03:28N 51°26' E 004°14'0 0.0
2017-Nov-18 03:00N 51°26' E 004°14'0 0.0
2017-Nov-18 02:30N 51°26' E 004°14'0 0.0
2017-Nov-18 01:58N 51°26' E 004°14'0 0.0
2017-Nov-18 01:30N 51°26' E 004°14'0 0.0
2017-Nov-18 01:00N 51°26' E 004°14'0 0.0
2017-Nov-18 00:30N 51°26' E 004°14'0 0.0
2017-Nov-18 00:00N 51°26' E 004°14'0 0.0
2017-Nov-17 23:30N 51°26' E 004°14'0 0.0
2017-Nov-17 22:57N 51°26' E 004°14'0 0.0
2017-Nov-17 22:27N 51°26' E 004°14'0 0.0
2017-Nov-17 22:00N 51°26' E 004°14'0 0.0
2017-Nov-17 21:27N 51°26' E 004°14'0 0.0
2017-Nov-17 21:00N 51°26' E 004°14'1 1.2
2017-Nov-17 20:30N 51°27' E 004°14'4 6.9
2017-Nov-17 19:59N 51°30' E 004°13'4 8.3
2017-Nov-17 19:29N 51°35' E 004°12'4 7.4
2017-Nov-17 18:58N 51°38' E 004°15'5 9.1
2017-Nov-17 18:25N 51°40' E 004°22'2 3.8
2017-Nov-17 17:54N 51°42' E 004°24'0 0.3
2017-Nov-17 17:30N 51°42' E 004°24'0 0.0
2017-Nov-17 17:00N 51°42' E 004°24'0 0.0
2017-Nov-17 16:30N 51°42' E 004°24'3 6.3
2017-Nov-17 16:00N 51°42' E 004°29'510.9
2017-Nov-17 15:30N 51°43' E 004°38'4 7.5
2017-Nov-17 15:00N 51°44' E 004°44'4 8.5
2017-Nov-17 14:30N 51°43' E 004°51'5 9.3
2017-Nov-17 14:00N 51°43' E 004°58'5 8.8
2017-Nov-17 13:28N 51°44' E 005°06'2 4.0
2017-Nov-17 12:55N 51°44' E 005°09'4 8.6
2017-Nov-17 12:30N 51°44' E 005°15'3 5.2
2017-Nov-17 11:52N 51°44' E 005°20'3 4.6
2017-Nov-17 11:19N 51°42' E 005°22'1 2.2
2017-Nov-17 11:00N 51°41' E 005°22'4 6.5
2017-Nov-17 10:26N 51°39' E 005°26'1 1.2
2017-Nov-17 10:00N 51°39' E 005°27'3 5.5
2017-Nov-17 09:30N 51°37' E 005°31'0 0.0
2017-Nov-17 09:00N 51°37' E 005°31'0 0.0
2017-Nov-17 08:30N 51°37' E 005°31'0 0.7
2017-Nov-17 08:00N 51°37' E 005°30'0 0.0
2017-Nov-17 07:28N 51°37' E 005°30'0 0.0
2017-Nov-17 07:00N 51°37' E 005°30'0 0.0
2017-Nov-17 06:30N 51°37' E 005°30'0 0.0
2017-Nov-17 06:00N 51°37' E 005°30'0 0.0
2017-Nov-17 05:30N 51°37' E 005°30'0 0.0
2017-Nov-17 05:00N 51°37' E 005°30'0 0.0
2017-Nov-17 04:30N 51°37' E 005°30'0 0.0
2017-Nov-17 04:00N 51°37' E 005°30'0 0.0
2017-Nov-17 03:30N 51°37' E 005°30'0 0.0
2017-Nov-17 03:00N 51°37' E 005°30'0 0.0
2017-Nov-17 02:30N 51°37' E 005°30'0 0.0
2017-Nov-17 02:00N 51°37' E 005°30'0 0.0
2017-Nov-17 01:30N 51°37' E 005°30'0 0.0
2017-Nov-17 01:00N 51°37' E 005°30'0 0.0
2017-Nov-17 00:30N 51°37' E 005°30'0 0.0
2017-Nov-17 00:00N 51°37' E 005°30'0 0.0
2017-Nov-16 23:30N 51°37' E 005°30'0 0.0
2017-Nov-16 23:00N 51°37' E 005°30'0 0.0
2017-Nov-16 19:23N 51°37' E 005°30'1 3.2
2017-Nov-16 19:00N 51°38' E 005°29'1 2.9
2017-Nov-16 18:30N 51°39' E 005°27'0 0.0
2017-Nov-16 18:00N 51°39' E 005°27'0 0.0
2017-Nov-16 17:31N 51°39' E 005°27'0 0.0
2017-Nov-16 17:00N 51°39' E 005°27'0 0.0
2017-Nov-16 16:30N 51°39' E 005°27'0 0.0
2017-Nov-16 16:00N 51°39' E 005°27'0 0.0
2017-Nov-16 15:30N 51°39' E 005°27'0 0.0
2017-Nov-16 15:00N 51°39' E 005°27'0 0.0
2017-Nov-16 14:30N 51°39' E 005°27'0 0.4
2017-Nov-16 14:00N 51°39' E 005°27'1 2.7
2017-Nov-16 13:30N 51°39' E 005°25'2 4.4
2017-Nov-16 13:00N 51°41' E 005°22'1 2.0
2017-Nov-16 12:30N 51°42' E 005°22'2 3.7
2017-Nov-16 12:00N 51°44' E 005°20'1 1.7
2017-Nov-16 11:30N 51°44' E 005°20'2 5.0
2017-Nov-16 11:00N 51°47' E 005°22'1 2.5
2017-Nov-16 10:28N 51°48' E 005°21'2 5.3
2017-Nov-16 10:00N 51°50' E 005°24'5 8.7
2017-Nov-16 09:27N 51°53' E 005°29'4 9.5
2017-Nov-16 09:00N 51°54' E 005°36'5 9.6
2017-Nov-16 08:29N 51°53' E 005°44'6 8.4
2017-Nov-16 07:46N 51°52' E 005°53'2 8.2
2017-Nov-16 07:30N 51°52' E 005°57'4 7.2
2017-Nov-16 07:00N 51°52' E 006°03'510.1
2017-Nov-16 06:30N 51°50' E 006°10'15 8.8
2017-Nov-16 04:49N 51°41' E 006°28'3 9.8
2017-Nov-16 04:30N 51°40' E 006°33'4 7.8
2017-Nov-16 04:01N 51°36' E 006°36'4 7.5
2017-Nov-16 03:30N 51°34' E 006°41'3 6.2
2017-Nov-16 03:00N 51°31' E 006°42'0 0.0
2017-Nov-16 02:30N 51°31' E 006°42'0 0.0
2017-Nov-16 02:00N 51°31' E 006°42'0 0.0
2017-Nov-16 01:31N 51°31' E 006°42'0 0.0
2017-Nov-16 01:00N 51°31' E 006°42'0 0.0
2017-Nov-16 00:30N 51°31' E 006°42'0 0.0
2017-Nov-16 00:00N 51°31' E 006°42'0 0.0
2017-Nov-15 23:30N 51°31' E 006°42'0 0.0
2017-Nov-15 23:00N 51°31' E 006°42'0 0.0
2017-Nov-15 22:30N 51°31' E 006°42'0 0.0
2017-Nov-15 22:00N 51°31' E 006°42'0 0.0
2017-Nov-15 21:30N 51°31' E 006°42'2 4.9
2017-Nov-15 21:00N 51°29' E 006°41'4 8.6
2017-Nov-15 20:30N 51°25' E 006°44'5 8.5
2017-Nov-15 19:55N 51°21' E 006°39'25 7.4
2017-Nov-15 16:29N 50°59' E 006°59'5 9.3
2017-Nov-15 16:00N 50°54' E 006°59'3 6.0
2017-Nov-15 15:26N 50°51' E 007°00'4 7.6
2017-Nov-15 14:58N 50°48' E 007°02'510.4
2017-Nov-15 14:30N 50°44' E 007°07'  

Dump ship's entire track history